createdAt,value
2019-01-24T00:01:53.122Z,26.30
2019-01-24T00:04:26.075Z,19.23
2019-01-24T00:06:59.085Z,16.80
2019-01-24T00:09:30.968Z,19.47
2019-01-24T00:12:04.186Z,17.43
2019-01-24T00:14:36.981Z,17.17
2019-01-24T00:17:08.361Z,16.60
2019-01-24T00:19:40.136Z,16.20
2019-01-24T00:22:13.163Z,16.70
2019-01-24T00:24:45.073Z,16.07
2019-01-24T00:27:18.158Z,14.37
2019-01-24T00:29:52.214Z,15.40
2019-01-24T00:32:26.139Z,15.27
2019-01-24T00:35:01.349Z,15.63
2019-01-24T00:37:34.117Z,15.93
2019-01-24T00:40:10.571Z,17.00
2019-01-24T00:42:43.181Z,15.00
2019-01-24T00:45:15.926Z,15.43
2019-01-24T00:47:49.163Z,16.83
2019-01-24T00:50:21.140Z,16.10
2019-01-24T00:52:55.259Z,16.33
2019-01-24T00:55:28.212Z,16.47
2019-01-24T00:58:00.196Z,17.57
2019-01-24T01:00:35.066Z,15.90
2019-01-24T01:03:08.005Z,16.13
2019-01-24T01:05:42.874Z,17.43
2019-01-24T01:08:15.710Z,16.10
2019-01-24T01:10:49.385Z,14.60
2019-01-24T01:13:22.198Z,13.57
2019-01-24T01:15:56.357Z,15.30
2019-01-24T01:18:31.110Z,13.93
2019-01-24T01:21:08.201Z,14.57
2019-01-24T01:23:43.035Z,13.83
2019-01-24T01:26:14.281Z,15.23
2019-01-24T01:28:46.405Z,14.60
2019-01-24T01:31:17.982Z,13.47
2019-01-24T01:33:53.073Z,14.87
2019-01-24T01:36:25.505Z,14.43
2019-01-24T01:38:59.521Z,12.70
2019-01-24T01:41:33.805Z,15.40
2019-01-24T01:44:07.163Z,13.93
2019-01-24T01:46:39.942Z,15.80
2019-01-24T01:49:13.287Z,18.30
2019-01-24T01:51:47.171Z,19.80
2019-01-24T01:54:21.276Z,17.80
2019-01-24T01:56:55.493Z,17.10
2019-01-24T01:59:28.255Z,16.10
2019-01-24T02:01:59.449Z,15.73
2019-01-24T02:04:34.470Z,17.00
2019-01-24T02:07:07.414Z,15.93
2019-01-24T02:09:40.781Z,16.73
2019-01-24T02:12:14.597Z,16.60
2019-01-24T02:14:50.176Z,16.90
2019-01-24T02:17:22.710Z,15.67
2019-01-24T02:19:58.155Z,16.10
2019-01-24T02:22:30.666Z,14.33
2019-01-24T02:25:05.888Z,16.37
2019-01-24T02:27:38.598Z,15.57
2019-01-24T02:30:23.662Z,14.50
2019-01-24T02:32:55.747Z,17.10
2019-01-24T02:35:29.655Z,17.73
2019-01-24T02:38:00.869Z,17.40
2019-01-24T02:40:36.339Z,15.40
2019-01-24T02:43:08.222Z,18.00
2019-01-24T02:45:39.677Z,17.00
2019-01-24T02:48:11.763Z,19.00
2019-01-24T02:50:44.980Z,17.40
2019-01-24T02:53:17.815Z,19.07
2019-01-24T02:55:49.104Z,17.10
2019-01-24T02:58:20.356Z,18.43
2019-01-24T03:00:51.876Z,19.67
2019-01-24T03:03:24.898Z,19.83
2019-01-24T03:05:58.874Z,19.10
2019-01-24T03:08:33.806Z,15.90
2019-01-24T03:11:09.430Z,19.17
2019-01-24T03:13:43.028Z,20.93
2019-01-24T03:16:14.961Z,22.77
2019-01-24T03:18:48.876Z,19.00
2019-01-24T03:21:22.984Z,19.87
2019-01-24T03:23:55.970Z,17.97
2019-01-24T03:26:27.216Z,18.00
2019-01-24T03:28:58.878Z,18.77
2019-01-24T03:31:31.982Z,19.60
2019-01-24T03:34:03.241Z,18.07
2019-01-24T03:36:34.495Z,19.70
2019-01-24T03:39:09.490Z,18.53
2019-01-24T03:41:41.873Z,17.20
2019-01-24T03:44:15.331Z,17.47
2019-01-24T03:46:47.021Z,17.90
2019-01-24T03:49:22.562Z,18.20
2019-01-24T03:51:54.761Z,16.83
2019-01-24T03:54:26.013Z,17.40
2019-01-24T03:56:57.201Z,20.47
2019-01-24T03:59:31.070Z,19.93
2019-01-24T04:02:03.860Z,18.00
2019-01-24T04:04:37.167Z,20.83
2019-01-24T04:07:08.519Z,17.30
2019-01-24T04:09:40.059Z,20.77
2019-01-24T04:12:11.990Z,21.87
2019-01-24T04:14:45.204Z,19.47
2019-01-24T04:17:18.985Z,19.40
2019-01-24T04:19:50.485Z,21.60
2019-01-24T04:22:21.710Z,20.43
2019-01-24T04:24:55.064Z,17.93
2019-01-24T04:27:28.738Z,17.87
2019-01-24T04:30:01.936Z,19.40
2019-01-24T04:32:35.027Z,19.67
2019-01-24T04:35:08.278Z,19.10
2019-01-24T04:37:43.761Z,19.57
2019-01-24T04:40:17.563Z,19.27
2019-01-24T04:42:52.360Z,20.63
2019-01-24T04:45:25.445Z,18.60
2019-01-24T04:47:59.371Z,20.07
2019-01-24T04:50:32.090Z,19.37
2019-01-24T04:53:03.547Z,19.80
2019-01-24T04:55:34.792Z,20.33
2019-01-24T04:58:10.024Z,19.73
2019-01-24T05:00:42.389Z,19.40
2019-01-24T05:03:16.247Z,25.87
2019-01-24T05:05:49.780Z,32.83
2019-01-24T05:08:21.832Z,29.83
2019-01-24T05:10:53.360Z,29.40
2019-01-24T05:13:26.460Z,33.13
2019-01-24T05:15:57.696Z,30.60
2019-01-24T05:18:31.414Z,28.70
2019-01-24T05:21:07.896Z,35.37
2019-01-24T05:23:41.516Z,28.60
2019-01-24T05:26:14.520Z,28.90
2019-01-24T05:28:48.571Z,26.70
2019-01-24T05:31:22.413Z,24.50
2019-01-24T05:33:57.965Z,23.30
2019-01-24T05:36:30.413Z,20.73
2019-01-24T05:39:08.327Z,18.10
2019-01-24T05:41:41.481Z,20.07
2019-01-24T05:44:12.700Z,18.23
2019-01-24T05:46:45.702Z,19.50
2019-01-24T05:49:18.051Z,18.53
2019-01-24T05:51:50.814Z,18.60
2019-01-24T05:54:24.736Z,16.07
2019-01-24T05:56:58.644Z,17.00
2019-01-24T05:59:29.864Z,18.40
2019-01-24T06:02:01.533Z,19.17
2019-01-24T06:04:35.805Z,21.80
2019-01-24T06:07:08.568Z,19.63
2019-01-24T06:09:43.578Z,17.53
2019-01-24T06:12:15.992Z,20.13
2019-01-24T06:14:47.571Z,21.43
2019-01-24T06:17:21.834Z,19.93
2019-01-24T06:19:54.692Z,20.73
2019-01-24T06:22:37.539Z,19.43
2019-01-24T06:25:09.194Z,17.43
2019-01-24T06:27:40.609Z,19.60
2019-01-24T06:30:15.164Z,20.07
2019-01-24T06:32:48.840Z,19.47
2019-01-24T06:36:05.160Z,18.37
2019-01-24T06:38:39.085Z,17.07
2019-01-24T06:41:11.801Z,17.60
2019-01-24T06:43:43.975Z,16.63
2019-01-24T06:46:17.808Z,18.83
2019-01-24T06:48:49.060Z,18.50
2019-01-24T06:51:20.419Z,16.00
2019-01-24T06:53:53.784Z,17.90
2019-01-24T06:56:25.017Z,19.67
2019-01-24T06:58:58.728Z,21.57
2019-01-24T07:01:30.803Z,18.17
2019-01-24T07:04:03.790Z,18.50
2019-01-24T07:06:39.286Z,18.30
2019-01-24T07:09:11.877Z,19.23
2019-01-24T07:11:45.956Z,18.83
2019-01-24T07:14:17.178Z,17.13
2019-01-24T07:16:50.791Z,18.57
2019-01-24T07:19:23.757Z,17.57
2019-01-24T07:21:57.912Z,16.90
2019-01-24T07:24:31.990Z,18.27
2019-01-24T07:27:03.266Z,18.00
2019-01-24T07:29:37.076Z,17.73
2019-01-24T07:32:08.779Z,17.13
2019-01-24T07:34:42.058Z,18.23
2019-01-24T07:37:14.956Z,17.37
2019-01-24T07:39:46.924Z,17.87
2019-01-24T07:42:21.164Z,18.30
2019-01-24T07:44:54.125Z,16.87
2019-01-24T07:47:25.635Z,18.20
2019-01-24T07:49:56.867Z,19.87
2019-01-24T07:52:30.021Z,15.50
2019-01-24T07:55:02.361Z,19.40
2019-01-24T07:57:35.065Z,18.03
2019-01-24T08:00:10.801Z,18.20
2019-01-24T08:02:43.480Z,20.50
2019-01-24T08:05:15.027Z,21.53
2019-01-24T08:07:48.256Z,21.10
2019-01-24T08:10:24.365Z,17.83
2019-01-24T08:12:57.770Z,19.23
2019-01-24T08:15:31.755Z,17.00
2019-01-24T08:18:04.845Z,20.37
2019-01-24T08:20:37.231Z,20.03
2019-01-24T08:23:09.042Z,22.00
2019-01-24T08:25:42.915Z,22.17
2019-01-24T08:28:15.459Z,22.63
2019-01-24T08:30:47.186Z,22.40
2019-01-24T08:33:21.217Z,21.67
2019-01-24T08:35:55.199Z,21.03
2019-01-24T08:38:29.226Z,19.07
2019-01-24T08:41:00.473Z,18.57
2019-01-24T08:53:04.259Z,21.20
2019-01-24T08:55:38.081Z,22.17
2019-01-24T08:58:10.158Z,24.87
2019-01-24T09:00:41.393Z,24.93
2019-01-24T09:03:17.315Z,26.53
2019-01-24T09:05:50.087Z,26.87
2019-01-24T09:08:21.311Z,25.90
2019-01-24T09:10:55.261Z,24.17
2019-01-24T09:13:26.999Z,25.73
2019-01-24T09:16:01.499Z,26.13
2019-01-24T09:18:34.636Z,26.50
2019-01-24T09:21:08.739Z,23.73
2019-01-24T09:23:41.914Z,26.80
2019-01-24T09:26:16.000Z,23.43
2019-01-24T09:28:47.981Z,24.70
2019-01-24T09:31:24.716Z,27.20
2019-01-24T09:34:03.063Z,26.97
2019-01-24T09:36:37.994Z,26.47
2019-01-24T09:39:10.808Z,24.27
2019-01-24T09:41:43.814Z,26.30
2019-01-24T09:44:15.544Z,25.83
2019-01-24T09:46:48.548Z,24.57
2019-01-24T09:49:24.130Z,22.80
2019-01-24T09:51:56.336Z,39.30
2019-01-24T09:54:27.562Z,34.30
2019-01-24T09:56:58.855Z,34.87
2019-01-24T09:59:30.077Z,32.40
2019-01-24T10:02:02.944Z,34.00
2019-01-24T10:04:36.807Z,27.57
2019-01-24T10:07:09.222Z,26.27
2019-01-24T10:10:15.823Z,26.70
2019-01-24T10:13:04.226Z,18.13
2019-01-24T10:15:35.909Z,18.00
2019-01-24T10:18:08.712Z,17.57
2019-01-24T10:20:40.319Z,20.53
2019-01-24T10:23:12.919Z,19.57
2019-01-24T10:25:44.676Z,19.83
2019-01-24T10:28:18.812Z,18.53
2019-01-24T10:30:51.789Z,22.10
2019-01-24T10:33:23.648Z,19.67
2019-01-24T10:35:57.681Z,19.27
2019-01-24T10:38:28.923Z,17.53
2019-01-24T10:41:03.253Z,19.13
2019-01-24T10:43:41.149Z,19.67
2019-01-24T10:46:12.801Z,19.27
2019-01-24T10:48:44.761Z,18.27
2019-01-24T10:51:17.796Z,16.30
2019-01-24T10:53:49.974Z,18.47
2019-01-24T10:56:25.487Z,18.47
2019-01-24T10:58:57.965Z,22.10
2019-01-24T11:01:29.181Z,15.00
2019-01-24T11:04:02.923Z,18.13
2019-01-24T11:06:34.117Z,17.50
2019-01-24T11:09:08.470Z,18.03
2019-01-24T11:11:41.510Z,16.50
2019-01-24T11:14:14.320Z,15.70
2019-01-24T11:16:47.087Z,16.50
2019-01-24T11:19:20.862Z,15.97
2019-01-24T11:21:54.075Z,16.87
2019-01-24T11:24:28.107Z,17.00
2019-01-24T11:27:02.052Z,16.20
2019-01-24T11:29:33.452Z,16.83
2019-01-24T11:32:04.788Z,17.47
2019-01-24T11:34:37.961Z,16.20
2019-01-24T11:37:09.253Z,15.33
2019-01-24T11:39:43.034Z,14.77
2019-01-24T11:42:14.992Z,15.17
2019-01-24T11:44:48.200Z,16.90
2019-01-24T11:47:22.109Z,16.37
2019-01-24T11:49:57.714Z,15.03
2019-01-24T11:52:30.162Z,15.40
2019-01-24T11:55:04.357Z,16.60
2019-01-24T11:57:38.171Z,16.97
2019-01-24T12:00:17.350Z,18.30
2019-01-24T12:02:49.274Z,18.17
2019-01-24T12:05:20.519Z,17.77
2019-01-24T12:07:54.205Z,16.37
2019-01-24T12:10:28.283Z,25.30
2019-01-24T12:13:03.695Z,19.70
2019-01-24T12:15:36.093Z,17.70
2019-01-24T12:18:09.193Z,21.13
2019-01-24T12:20:41.227Z,18.80
2019-01-24T12:23:15.231Z,17.07
2019-01-24T12:25:48.628Z,17.97
2019-01-24T12:28:22.492Z,22.73
2019-01-24T12:30:56.281Z,20.60
2019-01-24T12:33:27.802Z,21.00
2019-01-24T12:35:59.083Z,18.17
2019-01-24T12:38:30.310Z,18.10
2019-01-24T12:41:03.278Z,25.93
2019-01-24T12:43:40.289Z,23.87
2019-01-24T12:46:12.427Z,22.00
2019-01-24T12:48:47.377Z,18.50
2019-01-24T12:51:19.948Z,17.93
2019-01-24T12:53:52.810Z,17.13
2019-01-24T12:56:25.542Z,19.57
2019-01-24T12:59:02.841Z,20.40
2019-01-24T13:01:36.393Z,19.80
2019-01-24T13:04:10.308Z,17.20
2019-01-24T13:06:45.915Z,18.73
2019-01-24T13:09:18.992Z,20.33
2019-01-24T13:11:53.318Z,20.17
2019-01-24T13:14:28.699Z,17.27
2019-01-24T13:17:01.583Z,19.50
2019-01-24T13:19:33.586Z,18.73
2019-01-24T13:22:04.956Z,20.67
2019-01-24T13:34:45.585Z,18.83
2019-01-24T13:37:25.581Z,16.10
2019-01-24T13:39:53.636Z,18.13
2019-01-24T13:42:25.079Z,15.53
2019-01-24T13:44:56.977Z,13.53
2019-01-24T13:47:29.943Z,15.50
2019-01-24T13:50:05.227Z,12.87
2019-01-24T13:52:37.545Z,15.03
2019-01-24T13:55:09.563Z,13.70
2019-01-24T14:01:07.199Z,15.57
2019-01-24T14:03:57.966Z,13.57
2019-01-24T14:06:31.804Z,14.83
2019-01-24T14:09:08.207Z,13.53
2019-01-24T14:11:39.648Z,14.83
2019-01-24T14:14:13.018Z,23.77
2019-01-24T14:16:46.702Z,21.20
2019-01-24T14:19:18.811Z,13.73
2019-01-24T14:21:52.112Z,14.67
2019-01-24T14:24:25.806Z,14.17
2019-01-24T14:26:57.027Z,14.30
2019-01-24T14:29:29.804Z,13.87
2019-01-24T14:32:01.744Z,15.00
2019-01-24T14:34:34.900Z,14.77
2019-01-24T14:37:09.081Z,14.37
2019-01-24T14:39:41.128Z,12.73
2019-01-24T14:42:13.029Z,16.40
2019-01-24T14:44:45.843Z,14.27
2019-01-24T14:47:20.135Z,14.63
2019-01-24T14:49:52.041Z,14.40
2019-01-24T14:52:26.617Z,12.97
2019-01-24T14:55:00.264Z,13.70
2019-01-24T14:57:34.113Z,15.67
2019-01-24T15:00:20.661Z,13.10
2019-01-24T15:02:55.046Z,14.20
2019-01-24T15:05:26.642Z,14.17
2019-01-24T15:08:00.419Z,15.87
2019-01-24T15:10:38.299Z,15.70
2019-01-24T15:13:11.320Z,16.73
2019-01-24T15:15:45.241Z,16.77
2019-01-24T15:18:18.171Z,15.60
2019-01-24T15:20:51.142Z,15.87
2019-01-24T15:23:23.363Z,16.60
2019-01-24T15:25:56.195Z,17.60
2019-01-24T15:28:29.140Z,18.97
2019-01-24T15:31:03.278Z,18.77
2019-01-24T15:33:37.434Z,17.67
2019-01-24T15:36:08.699Z,17.77
2019-01-24T15:38:42.401Z,17.10
2019-01-24T15:41:14.226Z,19.60
2019-01-24T15:43:48.021Z,17.77
2019-01-24T15:46:21.230Z,19.13
2019-01-24T15:48:55.162Z,18.17
2019-01-24T15:51:30.959Z,21.03
2019-01-24T15:54:04.961Z,16.23
2019-01-24T15:56:39.762Z,19.00
2019-01-24T15:59:15.824Z,19.00
2019-01-24T16:01:48.090Z,18.50
2019-01-24T16:04:22.079Z,19.53
2019-01-24T16:06:54.540Z,18.17
2019-01-24T16:09:28.597Z,18.67
2019-01-24T16:12:01.221Z,27.43
2019-01-24T16:14:34.308Z,33.80
2019-01-24T16:17:13.835Z,40.33
2019-01-24T16:19:46.234Z,27.63
2019-01-24T16:22:20.354Z,25.57
2019-01-24T16:24:54.588Z,25.13
2019-01-24T16:27:27.931Z,25.23
2019-01-24T16:30:02.472Z,23.10
2019-01-24T16:32:35.194Z,21.20
2019-01-24T16:35:09.665Z,24.83
2019-01-24T16:37:42.417Z,27.00
2019-01-24T16:40:16.905Z,21.40
2019-01-24T16:42:51.133Z,24.47
2019-01-24T16:45:27.214Z,25.40
2019-01-24T16:48:01.371Z,25.73
2019-01-24T16:50:33.705Z,27.37
2019-01-24T16:53:06.445Z,23.30
2019-01-24T16:55:39.229Z,32.07
2019-01-24T16:58:12.533Z,28.17
2019-01-24T17:00:49.065Z,32.37
2019-01-24T17:03:23.150Z,32.40
2019-01-24T17:05:56.211Z,41.20
2019-01-24T17:08:29.398Z,122.60
2019-01-24T17:11:03.799Z,45.10
2019-01-24T17:13:38.614Z,33.50
2019-01-24T17:16:09.931Z,36.40
2019-01-24T17:18:43.697Z,32.00
2019-01-24T17:21:16.592Z,30.50
2019-01-24T17:23:47.819Z,36.63
2019-01-24T17:26:21.574Z,33.73
2019-01-24T17:28:57.132Z,36.27
2019-01-24T17:31:29.691Z,32.13
2019-01-24T17:37:29.960Z,26.90
2019-01-24T17:40:02.625Z,26.43
2019-01-24T17:42:34.602Z,27.57
2019-01-24T17:45:09.843Z,28.67
2019-01-24T17:47:41.812Z,27.47
2019-01-24T17:50:19.773Z,29.00
2019-01-24T17:52:55.428Z,34.70
2019-01-24T17:59:02.927Z,32.40
2019-01-24T18:01:42.273Z,32.07
2019-01-24T18:04:21.755Z,28.77
2019-01-24T18:06:53.658Z,22.07
2019-01-24T18:09:29.113Z,24.40
2019-01-24T18:12:04.068Z,22.10
2019-01-24T18:14:36.948Z,23.57
2019-01-24T18:17:09.728Z,21.90
2019-01-24T18:19:44.032Z,23.00
2019-01-24T18:22:15.782Z,23.93
2019-01-24T18:24:48.882Z,23.40
2019-01-24T18:27:23.218Z,28.37
2019-01-24T18:29:56.828Z,23.10
2019-01-24T18:32:28.342Z,23.70
2019-01-24T18:35:01.830Z,24.30
2019-01-24T18:37:35.811Z,25.20
2019-01-24T18:40:11.316Z,28.97
2019-01-24T18:42:43.859Z,28.00
2019-01-24T18:45:19.214Z,29.50
2019-01-24T18:47:51.996Z,30.53
2019-01-24T18:50:26.330Z,26.73
2019-01-24T18:52:59.934Z,27.00
2019-01-24T18:55:33.938Z,25.70
2019-01-24T18:58:08.263Z,26.77
2019-01-24T19:00:46.632Z,26.77
2019-01-24T19:03:19.238Z,24.90
2019-01-24T19:05:55.067Z,25.47
2019-01-24T19:08:27.439Z,26.10
2019-01-24T19:11:01.900Z,29.40
2019-01-24T19:13:34.346Z,25.30
2019-01-24T19:16:08.469Z,27.53
2019-01-24T19:18:42.685Z,27.77
2019-01-24T19:21:16.197Z,25.97
2019-01-24T19:23:48.545Z,22.67
2019-01-24T19:26:22.158Z,25.93
2019-01-24T19:28:57.824Z,24.07
2019-01-24T19:31:29.427Z,26.00
2019-01-24T19:34:02.803Z,24.03
2019-01-24T19:36:35.287Z,24.20
2019-01-24T19:39:10.115Z,22.37
2019-01-24T19:41:44.841Z,23.23
2019-01-24T19:44:18.863Z,27.00
2019-01-24T19:46:52.660Z,24.27
2019-01-24T19:49:25.419Z,23.57
2019-01-24T19:51:58.332Z,22.57
2019-01-24T19:54:29.600Z,23.53
2019-01-24T19:57:03.248Z,24.27
2019-01-24T19:59:38.754Z,22.50
2019-01-24T20:02:10.208Z,23.13
2019-01-24T20:04:44.046Z,24.73
2019-01-24T20:07:16.541Z,21.73
2019-01-24T20:09:52.036Z,21.97
2019-01-24T20:12:24.331Z,23.83
2019-01-24T20:14:58.259Z,23.80
2019-01-24T20:17:29.477Z,21.20
2019-01-24T20:20:03.618Z,23.83
2019-01-24T20:22:36.020Z,25.57
2019-01-24T20:25:11.407Z,26.20
2019-01-24T20:27:44.392Z,27.70
2019-01-24T20:30:20.113Z,24.00
2019-01-24T20:32:52.556Z,22.40
2019-01-24T20:35:38.085Z,20.77
2019-01-24T20:38:09.983Z,20.57
2019-01-24T20:40:44.277Z,20.60
2019-01-24T20:43:16.553Z,21.00
2019-01-24T20:45:49.390Z,20.70
2019-01-24T20:48:22.837Z,21.43
2019-01-24T20:50:56.524Z,20.87
2019-01-24T20:53:30.759Z,20.37
2019-01-24T20:56:02.831Z,22.03
2019-01-24T20:58:38.804Z,21.37
2019-01-24T21:01:10.383Z,18.70
2019-01-24T21:03:43.525Z,19.40
2019-01-24T21:06:17.423Z,19.87
2019-01-24T21:08:51.638Z,19.77
2019-01-24T21:11:23.007Z,19.80
2019-01-24T21:13:56.859Z,21.07
2019-01-24T21:16:30.737Z,20.07
2019-01-24T21:19:02.271Z,20.57
2019-01-24T21:21:36.774Z,19.10
2019-01-24T21:24:09.701Z,19.70
2019-01-24T21:26:43.693Z,21.10
2019-01-24T21:29:16.642Z,18.80
2019-01-24T21:31:48.576Z,20.07
2019-01-24T21:34:22.490Z,19.23
2019-01-24T21:36:53.813Z,20.60
2019-01-24T21:39:27.701Z,19.77
2019-01-24T21:42:01.766Z,20.23
2019-01-24T21:44:33.070Z,20.93
2019-01-24T21:47:07.358Z,20.67
2019-01-24T21:49:39.949Z,23.00
2019-01-24T21:52:14.741Z,20.20
2019-01-24T21:54:46.711Z,21.90
2019-01-24T21:57:20.500Z,20.60
2019-01-24T21:59:57.033Z,23.50
2019-01-24T22:02:30.882Z,21.33
2019-01-24T22:05:04.005Z,22.53
2019-01-24T22:07:35.322Z,20.30
2019-01-24T22:10:08.489Z,21.30
2019-01-24T22:12:40.964Z,21.47
2019-01-24T22:15:15.177Z,21.23
2019-01-24T22:17:48.443Z,20.90
2019-01-24T22:20:22.829Z,23.03
2019-01-24T22:22:57.786Z,18.63
2019-01-24T22:25:32.762Z,20.27
2019-01-24T22:28:08.069Z,21.97
2019-01-24T22:30:56.348Z,19.57
2019-01-24T22:33:30.428Z,21.23
2019-01-24T22:36:03.275Z,22.60
2019-01-24T22:38:34.912Z,20.37
2019-01-24T22:41:09.179Z,21.80
2019-01-24T22:43:43.043Z,20.87
2019-01-24T22:46:17.573Z,20.13
2019-01-24T22:48:51.129Z,23.90
2019-01-24T22:51:22.365Z,22.17
2019-01-24T22:53:55.043Z,23.00
2019-01-24T22:56:26.934Z,20.10
2019-01-24T22:59:02.658Z,23.00
2019-01-24T23:02:09.951Z,20.50
2019-01-24T23:04:45.009Z,22.40
2019-01-24T23:07:20.202Z,21.80
2019-01-24T23:09:53.614Z,19.57
2019-01-24T23:12:29.168Z,22.80
2019-01-24T23:15:01.049Z,18.90
2019-01-24T23:17:32.970Z,21.70
2019-01-24T23:20:09.547Z,18.63
2019-01-24T23:22:41.550Z,24.07
2019-01-24T23:25:14.437Z,20.70
2019-01-24T23:27:48.850Z,22.03
2019-01-24T23:30:22.699Z,23.37
2019-01-24T23:32:55.895Z,21.60
2019-01-24T23:35:29.292Z,20.67
2019-01-24T23:38:01.597Z,21.87
2019-01-24T23:40:35.721Z,22.40
2019-01-24T23:43:10.729Z,20.53
2019-01-24T23:45:43.422Z,21.50
2019-01-24T23:48:16.887Z,22.17
2019-01-24T23:50:50.651Z,20.90
2019-01-24T23:53:45.401Z,19.10
2019-01-24T23:56:20.938Z,23.00
2019-01-24T23:58:52.145Z,20.73
